Time;durP1;ratioP1;P1;durP2;ratioP2;P2;SDS_P1;SDS_P2;PMS_P1;PMS_P2;Temp;Humidity;BMP_temperature;BMP_pressure;BME280_temperature;BME280_humidity;BME280_pressure;Samples;Min_cycle;Max_cycle;Signal;HPM_P1;HPM_P2
2022/06/09 00:01:32;;;;;;;15.40;3.67;;;14.00;99.90;;;;;;4950395;28;20086;-42
2022/06/09 00:04:00;;;;;;;12.38;3.47;;;13.90;99.90;;;;;;4951745;28;20039;-40
2022/06/09 00:06:34;;;;;;;10.63;3.00;;;13.90;99.90;;;;;;4948722;28;20032;-40
2022/06/09 00:09:02;;;;;;;7.60;2.33;;;13.80;99.90;;;;;;4936639;29;20138;-41
2022/06/09 00:11:28;;;;;;;11.15;2.55;;;13.80;99.90;;;;;;4952056;28;20099;-42
2022/06/09 00:13:54;;;;;;;8.65;2.75;;;13.70;99.90;;;;;;4957930;28;20198;-42
2022/06/09 00:16:20;;;;;;;10.43;2.63;;;13.70;99.90;;;;;;4954739;28;20063;-42
2022/06/09 00:18:46;;;;;;;16.98;3.08;;;13.70;99.90;;;;;;4949214;28;20079;-40
2022/06/09 00:21:11;;;;;;;16.13;3.05;;;13.60;99.90;;;;;;4957194;28;20121;-43
2022/06/09 00:23:38;;;;;;;8.57;2.65;;;13.60;99.90;;;;;;4950777;28;20047;-41
2022/06/09 00:26:04;;;;;;;6.43;1.80;;;13.50;99.90;;;;;;4934642;29;20039;-41
2022/06/09 00:28:31;;;;;;;6.85;2.03;;;13.50;99.90;;;;;;4951186;28;20114;-42
2022/06/09 00:30:56;;;;;;;9.80;2.70;;;13.50;99.90;;;;;;4955016;28;20118;-42
2022/06/09 00:33:22;;;;;;;11.35;2.58;;;13.40;99.90;;;;;;4953942;28;20055;-42
2022/06/09 00:35:49;;;;;;;10.13;2.65;;;13.40;99.90;;;;;;4952112;28;20042;-40
2022/06/09 00:38:14;;;;;;;13.95;2.55;;;13.30;99.90;;;;;;4951143;28;20109;-42
2022/06/09 00:40:40;;;;;;;12.85;2.83;;;13.30;99.90;;;;;;4951409;29;20484;-43
2022/06/09 00:43:07;;;;;;;10.52;2.75;;;13.30;99.90;;;;;;4952466;28;20094;-43
2022/06/09 00:45:39;;;;;;;12.45;2.65;;;13.30;99.90;;;;;;4954499;28;20042;-40
2022/06/09 00:48:15;;;;;;;11.32;3.22;;;13.30;99.90;;;;;;4949059;28;20036;-41
2022/06/09 00:50:42;;;;;;;12.77;3.05;;;13.30;99.90;;;;;;4955137;28;20210;-42
2022/06/09 00:53:20;;;;;;;12.02;2.50;;;13.30;99.90;;;;;;4950970;28;20047;-42
2022/06/09 00:55:46;;;;;;;14.50;2.10;;;13.30;99.90;;;;;;4951508;28;20062;-42
2022/06/09 00:58:17;;;;;;;9.30;1.98;;;13.30;99.90;;;;;;4944783;28;20039;-40
2022/06/09 01:00:59;;;;;;;10.80;2.55;;;13.20;99.90;;;;;;4952185;28;20035;-45
2022/06/09 01:03:29;;;;;;;11.63;2.13;;;13.20;99.90;;;;;;4951064;28;20047;-43
2022/06/09 01:06:04;;;;;;;10.43;2.70;;;13.20;99.90;;;;;;4951594;28;20027;-43
2022/06/09 01:08:32;;;;;;;8.77;2.25;;;13.10;99.90;;;;;;4953095;28;20042;-43
2022/06/09 01:10:58;;;;;;;9.73;2.03;;;13.10;99.90;;;;;;4937853;28;20032;-42
2022/06/09 01:13:24;;;;;;;10.90;2.63;;;13.00;99.90;;;;;;4950873;28;20679;-43
2022/06/09 01:16:07;;;;;;;15.07;2.40;;;13.00;99.90;;;;;;4953187;28;20047;-40
2022/06/09 01:18:32;;;;;;;11.25;2.83;;;13.00;99.90;;;;;;4958277;28;20492;-41
2022/06/09 01:21:02;;;;;;;14.73;2.67;;;13.00;99.90;;;;;;4949524;28;20047;-41
2022/06/09 01:23:43;;;;;;;10.00;2.25;;;13.00;99.90;;;;;;4933901;28;20035;-42
2022/06/09 01:26:20;;;;;;;13.30;3.17;;;13.00;99.90;;;;;;4952805;28;20130;-40
2022/06/09 01:29:16;;;;;;;10.15;2.70;;;13.00;99.90;;;;;;4953559;28;20860;-42
2022/06/09 01:31:49;;;;;;;12.60;2.72;;;13.00;99.90;;;;;;4948950;28;20043;-42
2022/06/09 01:34:33;;;;;;;10.07;2.38;;;12.90;99.90;;;;;;4954327;28;20051;-42
2022/06/09 01:37:08;;;;;;;11.27;2.08;;;12.90;99.90;;;;;;4950406;28;20513;-42
2022/06/09 01:39:50;;;;;;;10.02;2.47;;;12.90;99.90;;;;;;4950947;28;20047;-44
2022/06/09 01:42:33;;;;;;;7.50;2.38;;;12.90;99.90;;;;;;4931964;29;20077;-42
2022/06/09 01:45:10;;;;;;;13.25;2.97;;;12.80;99.90;;;;;;4950790;28;20043;-43
2022/06/09 01:48:05;;;;;;;7.28;2.58;;;12.80;99.90;;;;;;4952137;28;20113;-42
2022/06/09 01:50:54;;;;;;;15.15;2.97;;;12.80;99.90;;;;;;4954641;28;20074;-43
2022/06/09 01:53:37;;;;;;;14.75;3.60;;;12.80;99.90;;;;;;4949181;28;20412;-42
2022/06/09 01:56:27;;;;;;;12.10;3.10;;;12.80;99.90;;;;;;4928240;29;20043;-43
2022/06/09 01:58:57;;;;;;;10.05;3.35;;;12.80;99.90;;;;;;4915424;28;20047;-43
2022/06/09 02:01:33;;;;;;;8.40;2.80;;;12.80;99.90;;;;;;4949596;28;20054;-45
2022/06/09 02:04:03;;;;;;;11.02;2.90;;;12.80;99.90;;;;;;4951996;28;20799;-42
2022/06/09 02:06:31;;;;;;;12.68;3.63;;;12.80;99.90;;;;;;4949251;28;20043;-40
2022/06/09 02:08:56;;;;;;;12.60;3.55;;;12.80;99.90;;;;;;4950749;28;20071;-44
2022/06/09 02:11:22;;;;;;;14.20;3.88;;;12.80;99.90;;;;;;4930456;29;20106;-43
2022/06/09 02:13:51;;;;;;;10.93;3.92;;;12.80;99.90;;;;;;4940132;28;20115;-43
2022/06/09 02:16:21;;;;;;;8.57;3.30;;;12.90;99.90;;;;;;4949730;28;20556;-43
2022/06/09 02:18:50;;;;;;;18.83;3.83;;;12.90;99.90;;;;;;4949034;28;20119;-44
2022/06/09 02:21:20;;;;;;;11.00;3.58;;;12.90;99.90;;;;;;4952037;28;20046;-42
2022/06/09 02:23:47;;;;;;;12.85;3.67;;;13.00;99.90;;;;;;4949230;28;20047;-42
2022/06/09 02:26:14;;;;;;;10.70;3.05;;;13.00;99.90;;;;;;4945771;28;20043;-44
2022/06/09 02:28:40;;;;;;;16.38;4.15;;;13.00;99.90;;;;;;4951751;28;20473;-42
2022/06/09 02:31:06;;;;;;;14.18;4.05;;;13.00;99.90;;;;;;4949375;28;20106;-43
2022/06/09 02:33:32;;;;;;;22.13;4.78;;;13.10;99.90;;;;;;4950522;28;20042;-43
2022/06/09 02:35:57;;;;;;;12.88;3.72;;;13.10;99.90;;;;;;4951694;28;20051;-42
2022/06/09 02:38:23;;;;;;;14.40;4.07;;;13.10;99.90;;;;;;4956043;28;20110;-45
2022/06/09 02:40:49;;;;;;;16.70;4.25;;;13.10;99.90;;;;;;4960564;28;20043;-40
2022/06/09 02:43:15;;;;;;;17.50;4.13;;;13.20;99.90;;;;;;4954102;28;20473;-42
2022/06/09 02:45:41;;;;;;;16.55;3.63;;;13.20;99.90;;;;;;4949397;28;20049;-42
2022/06/09 02:48:08;;;;;;;18.48;3.83;;;13.20;99.90;;;;;;4954493;28;20040;-43
2022/06/09 02:50:35;;;;;;;14.30;3.72;;;13.20;99.90;;;;;;4937154;29;20078;-41
2022/06/09 02:53:01;;;;;;;10.95;3.40;;;13.10;99.90;;;;;;4945551;28;20039;-41
2022/06/09 02:55:28;;;;;;;11.55;3.95;;;13.10;99.90;;;;;;4934847;29;20117;-44
2022/06/09 02:57:54;;;;;;;13.15;4.07;;;13.10;99.90;;;;;;4953371;28;20035;-43
2022/06/09 03:00:20;;;;;;;14.50;3.92;;;13.00;99.90;;;;;;4956973;28;20057;-42
2022/06/09 03:02:54;;;;;;;15.48;4.30;;;13.00;99.90;;;;;;4954307;28;20544;-43
2022/06/09 03:05:21;;;;;;;8.85;3.60;;;13.00;99.90;;;;;;4952851;28;20055;-40
2022/06/09 03:07:47;;;;;;;15.52;4.22;;;13.00;99.90;;;;;;4953158;28;20039;-44
2022/06/09 03:10:13;;;;;;;14.40;4.25;;;12.90;99.90;;;;;;4952741;28;20512;-44
2022/06/09 03:12:39;;;;;;;14.18;3.83;;;12.90;99.90;;;;;;4954232;28;20067;-41
2022/06/09 03:15:08;;;;;;;11.40;3.88;;;12.90;99.90;;;;;;4953086;28;20063;-43
2022/06/09 03:17:34;;;;;;;13.27;3.95;;;12.90;99.90;;;;;;4948931;28;20059;-43
2022/06/09 03:20:01;;;;;;;13.48;4.10;;;12.80;99.90;;;;;;4955635;28;20046;-42
2022/06/09 03:22:27;;;;;;;13.52;4.20;;;12.80;99.90;;;;;;4954129;28;20051;-42
2022/06/09 03:24:52;;;;;;;15.00;4.28;;;12.80;99.90;;;;;;4949409;28;20031;-45
2022/06/09 03:27:18;;;;;;;15.73;4.35;;;12.80;99.90;;;;;;4952282;28;20523;-44
2022/06/09 03:29:44;;;;;;;12.57;4.38;;;12.70;99.90;;;;;;4950962;28;20420;-43
2022/06/09 03:32:10;;;;;;;17.40;3.75;;;12.80;99.90;;;;;;4950842;28;20118;-43
2022/06/09 03:34:36;;;;;;;14.00;4.32;;;12.70;99.90;;;;;;4952942;28;20094;-42
2022/06/09 03:37:02;;;;;;;16.65;4.50;;;12.80;99.90;;;;;;4956168;28;20039;-42
2022/06/09 03:39:28;;;;;;;10.93;4.57;;;12.70;99.90;;;;;;4957681;28;20039;-42
2022/06/09 03:41:53;;;;;;;11.10;3.70;;;12.80;99.90;;;;;;4951396;28;20352;-43
2022/06/09 03:44:19;;;;;;;16.88;4.05;;;12.70;99.90;;;;;;4954323;28;20054;-43
2022/06/09 03:46:45;;;;;;;14.82;4.40;;;12.80;99.90;;;;;;4953548;28;20042;-42
2022/06/09 03:49:11;;;;;;;10.07;3.60;;;12.70;99.90;;;;;;4953618;28;20043;-43
2022/06/09 03:51:37;;;;;;;13.63;4.32;;;12.70;99.90;;;;;;4905967;29;20046;-42
2022/06/09 03:54:03;;;;;;;11.45;3.65;;;12.70;99.90;;;;;;4956510;28;20058;-42
2022/06/09 03:56:29;;;;;;;10.82;3.83;;;12.70;99.90;;;;;;4952148;28;20043;-41
2022/06/09 03:58:54;;;;;;;8.45;2.90;;;12.70;99.90;;;;;;4950071;28;20051;-44
2022/06/09 04:01:20;;;;;;;11.77;3.53;;;12.70;99.90;;;;;;4953777;28;20047;-44
2022/06/09 04:03:47;;;;;;;13.30;4.10;;;12.70;99.90;;;;;;4953287;28;20031;-40
2022/06/09 04:06:19;;;;;;;11.82;3.28;;;12.80;99.90;;;;;;4960387;28;20039;-43
2022/06/09 04:08:45;;;;;;;15.18;3.83;;;12.80;99.90;;;;;;4946254;28;20506;-40
2022/06/09 04:11:11;;;;;;;9.57;3.30;;;12.80;99.90;;;;;;4938017;28;20067;-44
2022/06/09 04:13:37;;;;;;;10.23;3.42;;;12.80;99.90;;;;;;4947227;28;20051;-43
2022/06/09 04:16:06;;;;;;;17.23;3.42;;;12.80;99.90;;;;;;4949896;28;20051;-43
2022/06/09 04:18:32;;;;;;;11.70;3.95;;;12.90;99.90;;;;;;4952685;28;20047;-40
2022/06/09 04:20:58;;;;;;;9.50;3.30;;;12.80;99.90;;;;;;4952605;28;20039;-44
2022/06/09 04:23:25;;;;;;;11.05;3.75;;;12.80;99.90;;;;;;4934091;28;20437;-41
2022/06/09 04:25:51;;;;;;;15.27;3.88;;;12.90;99.90;;;;;;4949537;28;20054;-42
2022/06/09 04:28:18;;;;;;;10.82;2.83;;;12.90;99.90;;;;;;4953811;28;20039;-44
2022/06/09 04:30:44;;;;;;;14.55;3.90;;;12.90;99.90;;;;;;4950387;28;20043;-44
2022/06/09 04:33:10;;;;;;;10.02;3.40;;;12.90;99.90;;;;;;4951769;28;20081;-40
2022/06/09 04:35:36;;;;;;;6.95;2.55;;;12.90;99.90;;;;;;4948910;28;20513;-42
2022/06/09 04:38:02;;;;;;;10.18;3.10;;;12.90;99.90;;;;;;4948243;28;20404;-43
2022/06/09 04:40:34;;;;;;;8.15;2.95;;;12.90;99.90;;;;;;4952295;28;20051;-44
2022/06/09 04:43:00;;;;;;;9.80;2.70;;;12.90;99.90;;;;;;4933206;28;20062;-41
2022/06/09 04:45:27;;;;;;;7.05;3.35;;;12.90;99.90;;;;;;4931841;29;20035;-42
2022/06/09 04:47:53;;;;;;;8.60;2.80;;;13.00;99.90;;;;;;4953824;28;20035;-43
2022/06/09 04:50:19;;;;;;;7.20;3.25;;;13.00;99.90;;;;;;4952255;28;20065;-43
2022/06/09 04:52:46;;;;;;;11.77;2.83;;;13.10;99.90;;;;;;4951992;29;20047;-43
2022/06/09 04:55:12;;;;;;;7.80;3.40;;;13.20;99.90;;;;;;4951085;28;20054;-40
2022/06/09 04:57:38;;;;;;;9.35;3.00;;;13.30;99.90;;;;;;4950095;28;20066;-44
2022/06/09 05:00:08;;;;;;;5.72;3.28;;;13.40;99.90;;;;;;4935892;28;20047;-42
2022/06/09 05:02:34;;;;;;;10.07;2.92;;;13.50;99.90;;;;;;4951204;28;20042;-43
2022/06/09 05:05:00;;;;;;;8.02;3.10;;;13.70;99.90;;;;;;4951204;28;20036;-43
2022/06/09 05:07:25;;;;;;;8.60;2.97;;;13.80;99.90;;;;;;4934255;29;20588;-41
2022/06/09 05:09:51;;;;;;;8.20;2.63;;;13.90;99.90;;;;;;4949943;28;20047;-43
2022/06/09 05:12:17;;;;;;;5.85;2.60;;;14.00;99.90;;;;;;4950191;28;20035;-40
2022/06/09 05:14:43;;;;;;;5.55;2.75;;;14.00;99.90;;;;;;4948819;28;20086;-41
2022/06/09 05:17:08;;;;;;;7.40;2.53;;;14.20;99.90;;;;;;4948210;28;20111;-42
2022/06/09 05:19:34;;;;;;;5.70;2.42;;;14.20;99.90;;;;;;4950152;28;20556;-40
2022/06/09 05:22:00;;;;;;;4.45;2.47;;;14.20;99.90;;;;;;4947957;28;20122;-43
2022/06/09 05:24:25;;;;;;;8.30;3.08;;;14.30;99.90;;;;;;4949548;28;20134;-41
2022/06/09 05:26:51;;;;;;;22.45;6.45;;;14.30;99.90;;;;;;4949278;28;20043;-42
2022/06/09 05:29:17;;;;;;;11.98;5.18;;;14.30;99.90;;;;;;4957975;28;20087;-43
2022/06/09 05:31:43;;;;;;;8.57;2.08;;;14.30;99.90;;;;;;4932448;28;20468;-41
2022/06/09 05:34:10;;;;;;;7.03;2.47;;;14.30;99.90;;;;;;4955533;28;20040;-43
2022/06/09 05:36:36;;;;;;;5.55;2.25;;;14.40;99.90;;;;;;4953122;28;20111;-40
2022/06/09 05:47:19;;;;;;;11.15;3.00;;;14.60;99.90;;;;;;4945978;28;20050;-42
2022/06/09 05:49:47;;;;;;;6.05;2.85;;;14.60;99.90;;;;;;4948624;28;20050;-41
2022/06/09 05:52:13;;;;;;;5.60;2.47;;;14.70;99.90;;;;;;4948748;28;20047;-42
2022/06/09 05:54:39;;;;;;;5.15;2.60;;;14.70;99.90;;;;;;4947781;29;20114;-46
2022/06/09 05:57:05;;;;;;;6.43;2.80;;;14.80;99.90;;;;;;4939462;29;20510;-42
2022/06/09 05:59:30;;;;;;;6.65;2.35;;;14.90;99.90;;;;;;4945916;28;20039;-39
2022/06/09 06:01:56;;;;;;;5.80;2.33;;;14.90;99.90;;;;;;4944923;28;20035;-41
2022/06/09 06:04:22;;;;;;;7.55;2.58;;;15.00;99.90;;;;;;4946790;28;20075;-40
2022/06/09 06:06:50;;;;;;;7.90;2.72;;;15.10;99.90;;;;;;4948059;28;20062;-42
2022/06/09 06:09:18;;;;;;;9.63;2.45;;;15.10;99.90;;;;;;4947430;28;20481;-40
2022/06/09 06:11:49;;;;;;;6.75;2.13;;;15.20;99.90;;;;;;4944381;28;20046;-40
2022/06/09 06:14:17;;;;;;;5.90;2.50;;;15.20;99.90;;;;;;4943380;28;20075;-41
2022/06/09 06:16:43;;;;;;;4.72;1.88;;;15.30;99.90;;;;;;4949611;28;20039;-42
2022/06/09 06:19:12;;;;;;;5.70;1.80;;;15.40;99.90;;;;;;4950156;28;20118;-41
2022/06/09 06:21:38;;;;;;;6.57;1.75;;;15.40;99.90;;;;;;4947296;28;20051;-41
2022/06/09 06:24:05;;;;;;;8.63;2.80;;;15.50;99.90;;;;;;4947116;28;20051;-42
2022/06/09 06:26:31;;;;;;;6.85;1.60;;;15.50;99.90;;;;;;4951068;28;20102;-43
2022/06/09 06:28:57;;;;;;;7.40;2.70;;;15.60;99.90;;;;;;4954855;28;20043;-40
2022/06/09 06:31:23;;;;;;;7.47;1.95;;;15.60;99.90;;;;;;4944711;28;20432;-42
2022/06/09 06:33:49;;;;;;;5.45;1.60;;;15.70;99.90;;;;;;4946026;28;20047;-42
2022/06/09 06:36:15;;;;;;;6.82;1.25;;;15.70;99.90;;;;;;4948324;28;20510;-43
2022/06/09 06:38:41;;;;;;;3.60;1.77;;;15.80;99.90;;;;;;4949180;28;20159;-42
2022/06/09 06:41:08;;;;;;;5.85;2.03;;;15.90;99.90;;;;;;4950427;28;20047;-48
2022/06/09 06:43:35;;;;;;;10.02;1.63;;;15.90;99.90;;;;;;4949501;28;20039;-44
2022/06/09 06:46:02;;;;;;;4.40;1.35;;;15.90;99.90;;;;;;4948796;28;20046;-42
2022/06/09 06:48:32;;;;;;;7.03;1.58;;;16.00;99.90;;;;;;4942770;28;20054;-43
2022/06/09 06:50:58;;;;;;;5.22;1.38;;;16.00;99.90;;;;;;4927292;29;20126;-44
2022/06/09 06:53:24;;;;;;;5.60;1.40;;;16.00;99.90;;;;;;4942323;28;20137;-42
2022/06/09 06:55:50;;;;;;;4.88;1.08;;;16.10;99.90;;;;;;4946667;28;20079;-44
2022/06/09 06:58:16;;;;;;;5.97;1.25;;;16.10;99.90;;;;;;4950505;28;20097;-43
2022/06/09 07:00:42;;;;;;;5.53;1.17;;;16.20;99.90;;;;;;4949615;29;20043;-41
2022/06/09 07:03:10;;;;;;;12.13;1.30;;;16.20;99.90;;;;;;4945828;28;20047;-41
2022/06/09 07:05:37;;;;;;;5.90;1.17;;;16.30;99.90;;;;;;4941151;28;20061;-41
2022/06/09 07:08:04;;;;;;;2.72;0.95;;;16.20;99.90;;;;;;4948108;28;20359;-43
2022/06/09 07:10:31;;;;;;;4.25;0.70;;;16.30;99.90;;;;;;4949073;28;20045;-45
2022/06/09 07:12:58;;;;;;;4.72;0.88;;;16.40;99.90;;;;;;4950099;28;20425;-41
2022/06/09 07:15:25;;;;;;;4.20;0.80;;;16.40;99.90;;;;;;4950952;28;20051;-42
2022/06/09 07:17:50;;;;;;;5.60;0.80;;;16.50;99.90;;;;;;4952990;28;20043;-42
2022/06/09 07:20:16;;;;;;;3.47;0.70;;;16.60;99.90;;;;;;4950154;28;20101;-44
2022/06/09 07:22:43;;;;;;;2.78;1.05;;;16.70;99.90;;;;;;4950507;28;20051;-43
2022/06/09 07:25:13;;;;;;;3.92;0.57;;;16.80;99.90;;;;;;4949841;29;20062;-40
2022/06/09 07:27:39;;;;;;;4.50;0.60;;;16.80;99.90;;;;;;4955689;28;20042;-43
2022/06/09 07:30:06;;;;;;;3.67;0.65;;;16.90;99.90;;;;;;4954477;28;20043;-44
2022/06/09 07:32:32;;;;;;;4.13;0.73;;;16.90;99.90;;;;;;4956463;28;20099;-43
2022/06/09 07:34:58;;;;;;;5.25;0.98;;;16.90;99.90;;;;;;4951054;28;20035;-41
2022/06/09 07:37:24;;;;;;;3.95;0.60;;;17.00;99.90;;;;;;4947357;28;20058;-42
2022/06/09 07:39:50;;;;;;;2.97;0.70;;;17.10;99.90;;;;;;4937799;29;20497;-43
2022/06/09 07:42:16;;;;;;;4.68;0.77;;;17.10;99.90;;;;;;4953486;28;20039;-43
2022/06/09 07:44:43;;;;;;;2.75;0.80;;;17.20;99.90;;;;;;4945599;29;20138;-41
2022/06/09 07:47:09;;;;;;;4.70;0.98;;;17.30;99.90;;;;;;4950625;29;20035;-43
2022/06/09 07:49:35;;;;;;;4.03;1.00;;;17.30;99.90;;;;;;4949630;29;20043;-46
2022/06/09 07:52:01;;;;;;;3.13;0.82;;;17.30;99.90;;;;;;4948528;28;20039;-42
2022/06/09 07:54:27;;;;;;;3.25;1.02;;;17.40;99.90;;;;;;4935850;29;20079;-41
2022/06/09 07:56:53;;;;;;;4.03;0.77;;;17.40;99.90;;;;;;4952420;28;20070;-42
2022/06/09 07:59:19;;;;;;;4.60;0.80;;;17.40;99.90;;;;;;4949604;28;20186;-43
2022/06/09 08:01:46;;;;;;;3.17;0.75;;;17.50;99.90;;;;;;4949701;29;20536;-45
2022/06/09 08:04:13;;;;;;;6.72;1.30;;;17.50;99.90;;;;;;4950962;29;20083;-42
2022/06/09 08:06:39;;;;;;;3.70;0.60;;;17.40;99.90;;;;;;4952953;28;20106;-42
2022/06/09 08:09:05;;;;;;;5.05;0.88;;;17.50;99.90;;;;;;4933354;29;21167;-44
2022/06/09 08:11:34;;;;;;;3.67;0.77;;;17.60;99.90;;;;;;4948137;28;20122;-42
2022/06/09 08:14:01;;;;;;;0.88;0.43;;;17.60;99.90;;;;;;4955188;28;20130;-43
2022/06/09 08:16:29;;;;;;;2.72;0.70;;;17.70;99.90;;;;;;4950843;28;20051;-43
2022/06/09 08:18:55;;;;;;;4.55;0.85;;;17.70;99.90;;;;;;4950160;28;20054;-44
2022/06/09 08:21:21;;;;;;;2.70;0.70;;;17.80;99.90;;;;;;4952859;28;20054;-42
2022/06/09 08:23:47;;;;;;;2.85;0.70;;;17.90;99.90;;;;;;4953931;28;20047;-45
2022/06/09 08:26:13;;;;;;;5.53;1.00;;;18.00;99.90;;;;;;4951603;29;20415;-42
2022/06/09 08:28:39;;;;;;;4.68;0.52;;;18.00;99.90;;;;;;4956279;28;20039;-43
2022/06/09 08:31:04;;;;;;;3.58;0.93;;;18.00;99.90;;;;;;4951157;28;20094;-43
2022/06/09 08:33:30;;;;;;;5.57;0.85;;;18.10;99.90;;;;;;4940407;29;20493;-42
2022/06/09 08:35:56;;;;;;;4.22;0.70;;;18.10;99.90;;;;;;4952974;28;20035;-43
2022/06/09 08:38:22;;;;;;;4.05;0.60;;;18.20;99.90;;;;;;4951052;28;20612;-41
2022/06/09 08:41:01;;;;;;;2.67;0.55;;;18.20;99.90;;;;;;4954436;28;20039;-43
2022/06/09 08:43:40;;;;;;;5.55;0.88;;;18.30;99.90;;;;;;4949715;28;20131;-45
2022/06/09 08:46:38;;;;;;;4.10;0.70;;;18.40;99.90;;;;;;4949224;28;20459;-48
2022/06/09 08:49:06;;;;;;;1.33;0.57;;;18.40;99.90;;;;;;4931270;29;20159;-42
2022/06/09 08:51:43;;;;;;;2.72;0.50;;;18.40;99.90;;;;;;4949868;28;20062;-41
2022/06/09 08:54:22;;;;;;;1.88;0.50;;;18.40;99.90;;;;;;4949811;28;20038;-41
2022/06/09 08:56:50;;;;;;;6.30;0.57;;;18.50;99.90;;;;;;4961224;28;20051;-41
2022/06/09 08:59:20;;;;;;;4.68;0.70;;;18.60;99.90;;;;;;4957551;28;20031;-42
2022/06/09 09:02:01;;;;;;;2.30;0.68;;;18.70;99.90;;;;;;4958104;28;20042;-43
2022/06/09 09:04:34;;;;;;;3.05;0.35;;;18.60;99.90;;;;;;4945699;28;20173;-43
2022/06/09 09:07:25;;;;;;;4.65;0.63;;;18.60;99.40;;;;;;4954208;28;20380;-44
2022/06/09 09:09:56;;;;;;;6.07;0.75;;;18.60;99.30;;;;;;4959810;28;20039;-42
2022/06/09 09:12:44;;;;;;;2.40;0.47;;;18.50;99.70;;;;;;4953012;28;20035;-41
2022/06/09 09:15:31;;;;;;;4.25;0.57;;;18.60;99.90;;;;;;4952347;28;20051;-41
2022/06/09 09:18:35;;;;;;;5.82;0.63;;;18.70;99.90;;;;;;4949477;29;20031;-42
2022/06/09 09:21:28;;;;;;;3.65;0.45;;;18.80;99.50;;;;;;4961208;28;20034;-43
2022/06/09 09:24:02;;;;;;;1.33;0.30;;;18.80;99.90;;;;;;4951745;28;20043;-43
2022/06/09 09:26:36;;;;;;;2.15;0.30;;;18.80;99.80;;;;;;4962212;28;20623;-42
2022/06/09 09:29:09;;;;;;;1.65;0.38;;;18.90;99.20;;;;;;4957758;28;20407;-42
2022/06/09 09:32:08;;;;;;;3.13;0.60;;;18.90;99.00;;;;;;4959766;28;20489;-44
2022/06/09 09:34:37;;;;;;;4.45;0.60;;;19.00;99.90;;;;;;4953858;28;20043;-42
2022/06/09 09:37:24;;;;;;;5.13;0.50;;;19.00;98.30;;;;;;4941245;28;20501;-45
2022/06/09 09:40:13;;;;;;;2.22;0.75;;;18.90;95.60;;;;;;4952348;28;20035;-41
2022/06/09 09:42:44;;;;;;;6.55;0.60;;;19.00;96.60;;;;;;4947749;28;20042;-44
2022/06/09 09:45:10;;;;;;;3.22;0.40;;;19.00;96.80;;;;;;4957490;28;20046;-46
2022/06/09 09:47:55;;;;;;;1.90;0.25;;;19.00;96.70;;;;;;4935613;29;20050;-44
2022/06/09 09:50:32;;;;;;;3.22;0.43;;;19.10;96.20;;;;;;4950702;28;20102;-46
2022/06/09 09:53:20;;;;;;;2.28;0.30;;;19.20;95.90;;;;;;4948914;29;20079;-42
2022/06/09 09:56:15;;;;;;;3.08;0.40;;;19.20;93.50;;;;;;4958900;28;20492;-47
2022/06/09 09:58:47;;;;;;;2.58;0.32;;;19.20;91.90;;;;;;4932912;29;20055;-46
2022/06/09 10:01:24;;;;;;;3.85;0.50;;;19.30;93.90;;;;;;4943802;28;20055;-46
2022/06/09 10:09:54;;;;;;;4.68;0.82;;;19.60;92.30;;;;;;4950792;28;20393;-43
2022/06/09 10:12:22;;;;;;;2.83;0.60;;;19.60;91.20;;;;;;4946881;28;20463;-43
2022/06/09 10:14:54;;;;;;;3.15;0.40;;;19.70;90.20;;;;;;4948825;28;20078;-40
2022/06/09 10:17:36;;;;;;;2.15;0.40;;;19.50;87.10;;;;;;4933867;28;20532;-46
2022/06/09 10:20:25;;;;;;;1.45;0.40;;;19.50;89.30;;;;;;4950921;28;20035;-46
2022/06/09 10:22:56;;;;;;;1.80;0.25;;;19.60;91.70;;;;;;4951590;28;20134;-43
2022/06/09 10:25:40;;;;;;;2.30;0.40;;;19.70;88.50;;;;;;4952115;28;20492;-45
2022/06/09 10:28:18;;;;;;;4.18;0.63;;;19.60;88.40;;;;;;4946998;28;20038;-45
2022/06/09 10:30:51;;;;;;;1.75;0.40;;;19.60;90.30;;;;;;4958213;28;20404;-47
2022/06/09 10:33:32;;;;;;;3.15;0.52;;;19.50;90.10;;;;;;4933352;29;20197;-48
2022/06/09 10:36:02;;;;;;;2.55;0.65;;;19.50;90.70;;;;;;4948285;28;20046;-43
2022/06/09 10:38:34;;;;;;;5.43;0.60;;;19.70;92.10;;;;;;4945391;28;20070;-43
2022/06/09 10:41:04;;;;;;;3.05;0.50;;;19.70;90.80;;;;;;4956269;28;20062;-42
2022/06/09 10:43:34;;;;;;;2.55;0.50;;;19.70;92.10;;;;;;4947102;28;20043;-42
2022/06/09 10:46:12;;;;;;;3.10;0.50;;;19.70;92.10;;;;;;4949131;28;20425;-50
2022/06/09 10:55:14;;;;;;;3.10;0.77;;;19.80;89.90;;;;;;4946566;28;20031;-46
2022/06/09 10:55:16;;;;;;;2.38;0.57;;;19.90;89.50;;;;;;4941162;28;20513;-46
2022/06/09 10:58:12;;;;;;;4.22;0.60;;;20.10;90.40;;;;;;4950945;28;20043;-48
2022/06/09 11:00:41;;;;;;;4.05;0.60;;;19.90;87.00;;;;;;4951486;28;20053;-44
2022/06/09 11:03:18;;;;;;;3.85;0.50;;;20.00;90.30;;;;;;4949795;28;20102;-42
2022/06/09 11:06:13;;;;;;;3.00;0.75;;;20.00;90.70;;;;;;4950739;28;20055;-43
2022/06/09 11:09:17;;;;;;;6.85;0.82;;;20.00;90.90;;;;;;4949124;28;20051;-44
2022/06/09 11:12:04;;;;;;;2.42;0.93;;;20.10;89.60;;;;;;4946572;28;20509;-46
2022/06/09 11:14:55;;;;;;;4.25;0.68;;;20.20;89.40;;;;;;4950901;28;20479;-43
2022/06/09 11:17:39;;;;;;;5.90;0.85;;;20.40;87.80;;;;;;4929898;28;20513;-48
2022/06/09 11:20:11;;;;;;;2.78;0.68;;;20.40;87.30;;;;;;4947861;28;20103;-42
2022/06/09 11:22:43;;;;;;;3.70;0.63;;;20.40;88.80;;;;;;4947501;28;20047;-48
2022/06/09 11:25:22;;;;;;;3.23;0.80;;;20.30;88.80;;;;;;4950285;28;20118;-44
2022/06/09 11:28:04;;;;;;;4.45;0.82;;;20.40;90.80;;;;;;4951634;28;20551;-45
2022/06/09 11:30:37;;;;;;;4.72;1.00;;;20.50;90.30;;;;;;4953642;28;20046;-45
2022/06/09 11:33:22;;;;;;;3.88;0.90;;;20.40;86.80;;;;;;4950191;28;20051;-46
2022/06/09 11:36:12;;;;;;;4.68;0.90;;;20.30;90.00;;;;;;4956420;28;20134;-49
2022/06/09 11:38:57;;;;;;;5.43;0.93;;;20.30;90.80;;;;;;4944360;28;20505;-42
2022/06/09 11:41:33;;;;;;;4.15;0.77;;;20.30;90.90;;;;;;4952375;28;20043;-49
2022/06/09 11:44:04;;;;;;;3.25;0.57;;;20.20;90.60;;;;;;4957378;28;20043;-47
2022/06/09 11:46:38;;;;;;;3.55;0.90;;;20.30;90.50;;;;;;4953343;28;20039;-49
2022/06/09 11:49:15;;;;;;;3.85;0.57;;;20.30;90.80;;;;;;4952252;28;20473;-45
2022/06/09 11:51:41;;;;;;;4.38;0.90;;;20.30;90.30;;;;;;4950847;28;20035;-43
2022/06/09 11:54:42;;;;;;;5.50;0.65;;;20.40;89.10;;;;;;4948292;28;20041;-41
2022/06/09 11:57:31;;;;;;;5.15;0.77;;;20.40;89.00;;;;;;4949907;28;20051;-49
2022/06/09 12:00:23;;;;;;;5.35;0.80;;;20.50;86.10;;;;;;4938406;28;20193;-47
2022/06/09 12:03:19;;;;;;;6.43;1.13;;;20.40;87.20;;;;;;4948428;28;20055;-43
2022/06/09 12:05:59;;;;;;;3.15;1.00;;;20.30;87.30;;;;;;4949166;28;20314;-44
2022/06/09 12:08:58;;;;;;;4.45;0.90;;;20.40;88.30;;;;;;4948848;28;20051;-43
2022/06/09 12:11:44;;;;;;;4.18;0.85;;;20.40;86.00;;;;;;4949352;28;20058;-44
2022/06/09 12:14:18;;;;;;;3.67;1.10;;;20.60;88.90;;;;;;4954527;28;20054;-49
2022/06/09 12:17:07;;;;;;;4.38;1.33;;;20.80;86.20;;;;;;4948214;29;20047;-41
2022/06/09 12:19:52;;;;;;;4.45;0.77;;;20.80;84.70;;;;;;4950819;28;20042;-43
2022/06/09 12:22:49;;;;;;;4.60;1.10;;;20.90;85.90;;;;;;4947587;28;20489;-45
2022/06/09 12:25:17;;;;;;;4.78;0.90;;;21.00;83.50;;;;;;4952081;28;20050;-45
2022/06/09 12:27:48;;;;;;;5.63;1.00;;;21.10;82.40;;;;;;4953055;28;20043;-45
2022/06/09 12:30:28;;;;;;;3.70;0.77;;;21.10;78.80;;;;;;4946034;28;20047;-46
2022/06/09 12:33:15;;;;;;;4.50;0.85;;;21.10;78.60;;;;;;4953373;28;20118;-45
2022/06/09 12:35:48;;;;;;;5.72;1.05;;;21.10;74.30;;;;;;4952765;28;20075;-44
2022/06/09 12:38:34;;;;;;;7.00;0.90;;;21.20;80.70;;;;;;4955457;28;20105;-42
2022/06/09 12:41:10;;;;;;;4.45;0.80;;;21.00;75.40;;;;;;4948156;28;20145;-46
2022/06/09 12:43:40;;;;;;;2.97;0.90;;;20.90;73.00;;;;;;4950767;28;20039;-43
2022/06/09 12:46:18;;;;;;;5.50;0.90;;;21.00;77.60;;;;;;4951778;28;22240;-48
2022/06/09 12:48:44;;;;;;;3.42;0.63;;;21.20;77.80;;;;;;4931831;29;20126;-46
2022/06/09 12:51:21;;;;;;;4.25;1.10;;;21.00;73.10;;;;;;4952324;28;20051;-44
2022/06/09 12:54:03;;;;;;;3.53;0.85;;;20.90;69.80;;;;;;4950478;28;20031;-45
2022/06/09 12:56:31;;;;;;;5.18;0.57;;;21.00;73.60;;;;;;4948152;28;20508;-45
2022/06/09 12:58:57;;;;;;;5.30;0.80;;;21.10;75.70;;;;;;4945047;29;20142;-46
2022/06/09 13:01:26;;;;;;;5.82;1.02;;;21.20;74.10;;;;;;4950714;28;20492;-44
2022/06/09 13:03:59;;;;;;;4.07;0.80;;;21.40;74.80;;;;;;4951116;28;20070;-48
2022/06/09 13:06:27;;;;;;;4.18;0.80;;;21.60;72.10;;;;;;4947450;28;20110;-47
2022/06/09 13:09:19;;;;;;;2.80;0.60;;;21.70;73.30;;;;;;4931394;28;20062;-43
2022/06/09 13:14:34;;;;;;;4.50;0.82;;;21.40;66.50;;;;;;4942839;28;20059;-48
2022/06/09 13:17:07;;;;;;;4.88;0.90;;;21.30;66.30;;;;;;4952314;28;20054;-46
2022/06/09 13:19:33;;;;;;;;;;;21.20;66.80;;;;;;4939552;29;20054;-47
2022/06/09 13:22:02;;;;;;;5.47;0.82;;;21.20;68.60;;;;;;4954931;28;19925;-49
2022/06/09 13:24:36;;;;;;;3.10;0.70;;;21.50;72.20;;;;;;4956209;28;20055;-44
2022/06/09 13:27:09;;;;;;;2.72;0.60;;;21.70;69.50;;;;;;4951159;28;20266;-44